PWSweather.com
Personal Weather Stations
Station Observations
IMAZOWIE6
WarszawaPL

WarszawaPL

Lat: 52.27957, Lon: 21.05489

Elevation: 100

Station Type: WS1080

http://stacjapogody.waw.pl/

High Low Average
Temperature 50.0°F10.0°C 39.9°F4.4°C 45.3°F7.4°C
Dew Point -167.8°F-111.0°C -168.8°F-111.6°C -168.3°F-111.3°C
Winds 4.8 mph 7.7 kmh Calm Calm 2.0 mph N3.2 kmh N
Wind Gusts 9.6 mph15.4 kmh -- 4.0 mph6.4 kmh
Humidity - - -
Pressure 29.21 in989.2 mb 29.00 in982.1 mb -
Precipitation 0.00 in0.0 mm - -
Hour Temp Dew Point Humidity Winds Wind Gusts Pressure Precip Precip Rate Daily Precip Total
12:04 AM 43.2°F6.2°C -168.5°F-111.4°C - Calm Calm 3.4 mph5.5 kmh 29.06 in984.1 mb 0.00 in0.0 mm 0.00 in0.0 mm 0.00 in0.0 mm
12:19 AM 43.2°F6.2°C -168.5°F-111.4°C - 3.4 mph N5.5 kmh N 5.4 mph8.7 kmh 29.06 in984.1 mb 0.00 in0.0 mm 0.00 in0.0 mm 0.00 in0.0 mm
12:34 AM 43.3°F6.3°C -168.5°F-111.4°C - 2.8 mph N4.5 kmh N 5.4 mph8.7 kmh 29.06 in984.1 mb 0.00 in0.0 mm 0.00 in0.0 mm 0.00 in0.0 mm
12:49 AM 43.3°F6.3°C -168.5°F-111.4°C - 1.4 mph N2.3 kmh N 4.0 mph6.4 kmh 29.05 in983.7 mb 0.00 in0.0 mm 0.00 in0.0 mm 0.00 in0.0 mm
01:04 AM 43.0°F6.1°C -168.5°F-111.4°C - 3.4 mph N5.5 kmh N 8.2 mph13.2 kmh 29.05 in983.7 mb 0.00 in0.0 mm 0.00 in0.0 mm 0.00 in0.0 mm
01:19 AM 42.8°F6.0°C -168.5°F-111.4°C - 0.6 mph N1.0 kmh N 4.0 mph6.4 kmh 29.05 in983.7 mb 0.00 in0.0 mm 0.00 in0.0 mm 0.00 in0.0 mm
01:34 AM 42.6°F5.9°C -168.5°F-111.4°C - Calm Calm 0.6 mph1.0 kmh 29.04 in983.4 mb 0.00 in0.0 mm 0.00 in0.0 mm 0.00 in0.0 mm
01:49 AM 42.6°F5.9°C -168.5°F-111.4°C - 0.6 mph N1.0 kmh N 2.8 mph4.5 kmh 29.04 in983.4 mb 0.00 in0.0 mm 0.00 in0.0 mm 0.00 in0.0 mm
02:04 AM 42.3°F5.7°C -168.6°F-111.4°C - 0.6 mph N1.0 kmh N 4.8 mph7.7 kmh 29.04 in983.4 mb 0.00 in0.0 mm 0.00 in0.0 mm 0.00 in0.0 mm
02:19 AM 41.9°F5.5°C -168.6°F-111.4°C - Calm Calm 2.0 mph3.2 kmh 29.03 in983.1 mb 0.00 in0.0 mm 0.00 in0.0 mm 0.00 in0.0 mm
02:34 AM 41.5°F5.3°C -168.6°F-111.4°C - 1.4 mph N2.3 kmh N 3.4 mph5.5 kmh 29.03 in983.1 mb 0.00 in0.0 mm 0.00 in0.0 mm 0.00 in0.0 mm
02:49 AM 41.2°F5.1°C -168.7°F-111.5°C - Calm Calm 4.0 mph6.4 kmh 29.03 in983.1 mb 0.00 in0.0 mm 0.00 in0.0 mm 0.00 in0.0 mm
03:04 AM 41.2°F5.1°C -168.7°F-111.5°C - 0.6 mph N1.0 kmh N 2.8 mph4.5 kmh 29.03 in983.1 mb 0.00 in0.0 mm 0.00 in0.0 mm 0.00 in0.0 mm
03:19 AM 40.8°F4.9°C -168.7°F-111.5°C - 0.6 mph N1.0 kmh N 6.2 mph10.0 kmh 29.02 in982.7 mb 0.00 in0.0 mm 0.00 in0.0 mm 0.00 in0.0 mm
03:34 AM 40.3°F4.6°C -168.8°F-111.6°C - 2.8 mph N4.5 kmh N 5.4 mph8.7 kmh 29.02 in982.7 mb 0.00 in0.0 mm 0.00 in0.0 mm 0.00 in0.0 mm
03:49 AM 40.1°F4.5°C -168.8°F-111.6°C - Calm Calm 4.8 mph7.7 kmh 29.02 in982.7 mb 0.00 in0.0 mm 0.00 in0.0 mm 0.00 in0.0 mm
04:04 AM 39.9°F4.4°C -168.8°F-111.6°C - 0.6 mph N1.0 kmh N 6.2 mph10.0 kmh 29.02 in982.7 mb 0.00 in0.0 mm 0.00 in0.0 mm 0.00 in0.0 mm
04:19 AM 40.1°F4.5°C -168.8°F-111.6°C - 0.6 mph N1.0 kmh N 3.4 mph5.5 kmh 29.01 in982.4 mb 0.00 in0.0 mm 0.00 in0.0 mm 0.00 in0.0 mm
04:34 AM 40.1°F4.5°C -168.8°F-111.6°C - 0.6 mph N1.0 kmh N 4.0 mph6.4 kmh 29.00 in982.1 mb 0.00 in0.0 mm 0.00 in0.0 mm 0.00 in0.0 mm
04:49 AM 40.1°F4.5°C -168.8°F-111.6°C - Calm Calm 4.0 mph6.4 kmh 29.00 in982.1 mb 0.00 in0.0 mm 0.00 in0.0 mm 0.00 in0.0 mm
05:04 AM 40.5°F4.7°C -168.8°F-111.6°C - 1.4 mph N2.3 kmh N 4.8 mph7.7 kmh 29.00 in982.1 mb 0.00 in0.0 mm 0.00 in0.0 mm 0.00 in0.0 mm
05:19 AM 40.6°F4.8°C -168.7°F-111.5°C - Calm Calm 0.6 mph1.0 kmh 29.00 in982.1 mb 0.00 in0.0 mm 0.00 in0.0 mm 0.00 in0.0 mm
05:34 AM 40.8°F4.9°C -168.7°F-111.5°C - 0.6 mph N1.0 kmh N 3.4 mph5.5 kmh 29.00 in982.1 mb 0.00 in0.0 mm 0.00 in0.0 mm 0.00 in0.0 mm
05:49 AM 40.8°F4.9°C -168.7°F-111.5°C - Calm Calm 2.0 mph3.2 kmh 29.00 in982.1 mb 0.00 in0.0 mm 0.00 in0.0 mm 0.00 in0.0 mm
06:04 AM 41.0°F5.0°C -168.7°F-111.5°C - Calm Calm -- 29.00 in982.1 mb 0.00 in0.0 mm 0.00 in0.0 mm 0.00 in0.0 mm
06:19 AM 41.0°F5.0°C -168.7°F-111.5°C - 0.6 mph N1.0 kmh N 4.0 mph6.4 kmh 29.00 in982.1 mb 0.00 in0.0 mm 0.00 in0.0 mm 0.00 in0.0 mm
06:34 AM 41.0°F5.0°C -168.7°F-111.5°C - 2.0 mph N3.2 kmh N 4.0 mph6.4 kmh 29.00 in982.1 mb 0.00 in0.0 mm 0.00 in0.0 mm 0.00 in0.0 mm
06:49 AM 40.8°F4.9°C -168.7°F-111.5°C - 2.0 mph N3.2 kmh N 6.2 mph10.0 kmh 29.00 in982.1 mb 0.01 in0.3 mm 0.05 in1.3 mm 0.01 in0.3 mm
07:04 AM 40.5°F4.7°C -168.8°F-111.6°C - 0.6 mph N1.0 kmh N 3.4 mph5.5 kmh 29.00 in982.1 mb 0.01 in0.3 mm 0.00 in0.0 mm 0.01 in0.3 mm
07:19 AM 40.5°F4.7°C -168.8°F-111.6°C - 2.8 mph N4.5 kmh N 5.4 mph8.7 kmh 29.00 in982.1 mb 0.00 in0.0 mm 0.00 in0.0 mm 0.01 in0.3 mm
07:34 AM 40.6°F4.8°C -168.7°F-111.5°C - 2.8 mph N4.5 kmh N 5.4 mph8.7 kmh 29.01 in982.4 mb 0.00 in0.0 mm 0.00 in0.0 mm 0.01 in0.3 mm
07:49 AM 40.6°F4.8°C -168.7°F-111.5°C - 2.0 mph N3.2 kmh N 4.8 mph7.7 kmh 29.01 in982.4 mb 0.00 in0.0 mm 0.00 in0.0 mm 0.01 in0.3 mm
08:04 AM 40.8°F4.9°C -168.7°F-111.5°C - 0.6 mph N1.0 kmh N 2.8 mph4.5 kmh 29.01 in982.4 mb 0.00 in0.0 mm 0.00 in0.0 mm 0.01 in0.3 mm
08:19 AM 41.2°F5.1°C -168.7°F-111.5°C - 2.0 mph N3.2 kmh N 4.8 mph7.7 kmh 29.02 in982.7 mb 0.00 in0.0 mm 0.00 in0.0 mm 0.01 in0.3 mm
08:34 AM 41.2°F5.1°C -168.7°F-111.5°C - 2.0 mph N3.2 kmh N 4.0 mph6.4 kmh 29.02 in982.7 mb 0.00 in0.0 mm 0.00 in0.0 mm 0.01 in0.3 mm
08:49 AM 41.4°F5.2°C -168.7°F-111.5°C - 1.4 mph N2.3 kmh N 4.8 mph7.7 kmh 29.02 in982.7 mb 0.00 in0.0 mm 0.00 in0.0 mm 0.01 in0.3 mm
09:04 AM 41.9°F5.5°C -168.6°F-111.4°C - 2.0 mph N3.2 kmh N 4.8 mph7.7 kmh 29.02 in982.7 mb 0.00 in0.0 mm 0.00 in0.0 mm 0.01 in0.3 mm
09:19 AM 41.9°F5.5°C -168.6°F-111.4°C - 1.4 mph N2.3 kmh N 3.4 mph5.5 kmh 29.02 in982.7 mb 0.00 in0.0 mm 0.00 in0.0 mm 0.01 in0.3 mm
09:34 AM 42.1°F5.6°C -168.6°F-111.4°C - Calm Calm 2.8 mph4.5 kmh 29.02 in982.7 mb 0.00 in0.0 mm 0.00 in0.0 mm 0.01 in0.3 mm
09:49 AM 44.4°F6.9°C -168.4°F-111.3°C - 1.4 mph N2.3 kmh N 2.8 mph4.5 kmh 29.03 in983.1 mb 0.00 in0.0 mm 0.00 in0.0 mm 0.01 in0.3 mm
10:04 AM 44.6°F7.0°C -168.3°F-111.3°C - 2.0 mph N3.2 kmh N 5.4 mph8.7 kmh 29.04 in983.4 mb 0.00 in0.0 mm 0.00 in0.0 mm 0.01 in0.3 mm
10:19 AM 45.0°F7.2°C -168.3°F-111.3°C - 1.4 mph N2.3 kmh N 3.4 mph5.5 kmh 29.03 in983.1 mb 0.00 in0.0 mm 0.00 in0.0 mm 0.01 in0.3 mm
10:34 AM 46.4°F8.0°C -168.2°F-111.2°C - Calm Calm 2.0 mph3.2 kmh 29.03 in983.1 mb 0.00 in0.0 mm 0.00 in0.0 mm 0.01 in0.3 mm
10:49 AM 47.7°F8.7°C -168.0°F-111.1°C - 1.4 mph N2.3 kmh N 4.8 mph7.7 kmh 29.03 in983.1 mb 0.00 in0.0 mm 0.00 in0.0 mm 0.01 in0.3 mm
11:04 AM 48.2°F9.0°C -168.0°F-111.1°C - 2.0 mph N3.2 kmh N 7.4 mph11.9 kmh 29.03 in983.1 mb 0.01 in0.3 mm 0.02 in0.5 mm 0.02 in0.5 mm
11:19 AM 48.2°F9.0°C -168.0°F-111.1°C - 1.4 mph N2.3 kmh N 3.4 mph5.5 kmh 29.04 in983.4 mb 0.00 in0.0 mm 0.00 in0.0 mm 0.02 in0.5 mm
11:34 AM 48.7°F9.3°C -167.9°F-111.1°C - 2.8 mph N4.5 kmh N 5.4 mph8.7 kmh 29.04 in983.4 mb 0.00 in0.0 mm 0.00 in0.0 mm 0.02 in0.5 mm
11:49 AM 49.5°F9.7°C -167.9°F-111.1°C - 3.4 mph N5.5 kmh N 5.4 mph8.7 kmh 29.04 in983.4 mb 0.00 in0.0 mm 0.00 in0.0 mm 0.02 in0.5 mm
12:04 PM 49.6°F9.8°C -167.8°F-111.0°C - 2.8 mph N4.5 kmh N 5.4 mph8.7 kmh 29.04 in983.4 mb 0.00 in0.0 mm 0.00 in0.0 mm 0.02 in0.5 mm
12:19 PM 49.8°F9.9°C -167.8°F-111.0°C - Calm Calm 3.4 mph5.5 kmh 29.05 in983.7 mb 0.00 in0.0 mm 0.00 in0.0 mm 0.02 in0.5 mm
12:34 PM 49.6°F9.8°C -167.8°F-111.0°C - 2.0 mph N3.2 kmh N 4.0 mph6.4 kmh 29.05 in983.7 mb 0.00 in0.0 mm 0.00 in0.0 mm 0.02 in0.5 mm
12:49 PM 49.6°F9.8°C -167.8°F-111.0°C - 2.8 mph N4.5 kmh N 6.2 mph10.0 kmh 29.05 in983.7 mb 0.00 in0.0 mm 0.00 in0.0 mm 0.02 in0.5 mm
01:04 PM 49.6°F9.8°C -167.8°F-111.0°C - 2.8 mph N4.5 kmh N 4.0 mph6.4 kmh 29.06 in984.1 mb 0.00 in0.0 mm 0.00 in0.0 mm 0.02 in0.5 mm
01:19 PM 49.8°F9.9°C -167.8°F-111.0°C - 3.4 mph N5.5 kmh N 5.4 mph8.7 kmh 29.06 in984.1 mb 0.00 in0.0 mm 0.00 in0.0 mm 0.02 in0.5 mm
01:34 PM 50.0°F10.0°C -167.8°F-111.0°C - 4.8 mph N7.7 kmh N 9.6 mph15.4 kmh 29.06 in984.1 mb 0.00 in0.0 mm 0.00 in0.0 mm 0.02 in0.5 mm
01:49 PM 50.0°F10.0°C -167.8°F-111.0°C - 1.4 mph N2.3 kmh N 7.4 mph11.9 kmh 29.07 in984.4 mb 0.00 in0.0 mm 0.00 in0.0 mm 0.02 in0.5 mm
02:04 PM 49.5°F9.7°C -167.9°F-111.1°C - 2.8 mph N4.5 kmh N 4.8 mph7.7 kmh 29.08 in984.8 mb 0.00 in0.0 mm 0.00 in0.0 mm 0.02 in0.5 mm
02:19 PM 49.3°F9.6°C -167.9°F-111.1°C - 4.0 mph N6.4 kmh N 7.4 mph11.9 kmh 29.08 in984.8 mb 0.00 in0.0 mm 0.00 in0.0 mm 0.02 in0.5 mm
02:34 PM 48.6°F9.2°C -167.9°F-111.1°C - 4.0 mph N6.4 kmh N 6.2 mph10.0 kmh 29.08 in984.8 mb 0.00 in0.0 mm 0.00 in0.0 mm 0.02 in0.5 mm
02:49 PM 48.4°F9.1°C -168.0°F-111.1°C - 1.4 mph N2.3 kmh N 3.4 mph5.5 kmh 29.09 in985.1 mb 0.00 in0.0 mm 0.00 in0.0 mm 0.02 in0.5 mm
03:04 PM 48.2°F9.0°C -168.0°F-111.1°C - 1.4 mph N2.3 kmh N 3.4 mph5.5 kmh 29.09 in985.1 mb 0.00 in0.0 mm 0.00 in0.0 mm 0.02 in0.5 mm
03:19 PM 48.0°F8.9°C -168.0°F-111.1°C - 1.4 mph N2.3 kmh N 4.0 mph6.4 kmh 29.09 in985.1 mb 0.00 in0.0 mm 0.00 in0.0 mm 0.02 in0.5 mm
03:34 PM 48.2°F9.0°C -168.0°F-111.1°C - 2.0 mph N3.2 kmh N 4.0 mph6.4 kmh 29.08 in984.8 mb 0.00 in0.0 mm 0.00 in0.0 mm 0.02 in0.5 mm
03:49 PM 48.4°F9.1°C -168.0°F-111.1°C - 2.0 mph N3.2 kmh N 4.0 mph6.4 kmh 29.10 in985.4 mb 0.00 in0.0 mm 0.00 in0.0 mm 0.02 in0.5 mm
04:04 PM 48.2°F9.0°C -168.0°F-111.1°C - 2.0 mph N3.2 kmh N 4.0 mph6.4 kmh 29.10 in985.4 mb 0.00 in0.0 mm 0.00 in0.0 mm 0.02 in0.5 mm
04:19 PM 47.5°F8.6°C -168.1°F-111.2°C - 0.6 mph N1.0 kmh N 2.0 mph3.2 kmh 29.10 in985.4 mb 0.00 in0.0 mm 0.00 in0.0 mm 0.02 in0.5 mm
04:34 PM 47.3°F8.5°C -168.1°F-111.2°C - 0.6 mph N1.0 kmh N 2.8 mph4.5 kmh 29.10 in985.4 mb 0.00 in0.0 mm 0.00 in0.0 mm 0.02 in0.5 mm
04:49 PM 47.7°F8.7°C -168.0°F-111.1°C - 1.4 mph N2.3 kmh N 2.8 mph4.5 kmh 29.11 in985.8 mb 0.00 in0.0 mm 0.00 in0.0 mm 0.02 in0.5 mm
05:04 PM 47.3°F8.5°C -168.1°F-111.2°C - 2.0 mph N3.2 kmh N 4.0 mph6.4 kmh 29.09 in985.1 mb 0.01 in0.3 mm 0.02 in0.5 mm 0.04 in1.0 mm
05:19 PM 46.9°F8.3°C -168.1°F-111.2°C - 0.6 mph N1.0 kmh N 3.4 mph5.5 kmh 29.09 in985.1 mb 0.00 in0.0 mm 0.00 in0.0 mm 0.04 in1.0 mm
05:34 PM 47.1°F8.4°C -168.1°F-111.2°C - 2.0 mph N3.2 kmh N 4.8 mph7.7 kmh 29.09 in985.1 mb 0.00 in0.0 mm 0.00 in0.0 mm 0.04 in1.0 mm
05:49 PM 47.7°F8.7°C -168.0°F-111.1°C - 2.0 mph N3.2 kmh N 4.0 mph6.4 kmh 29.09 in985.1 mb 0.00 in0.0 mm 0.00 in0.0 mm 0.04 in1.0 mm
06:04 PM 47.5°F8.6°C -168.1°F-111.2°C - 2.0 mph N3.2 kmh N 4.0 mph6.4 kmh 29.09 in985.1 mb 0.00 in0.0 mm 0.00 in0.0 mm 0.04 in1.0 mm
06:15 PM 47.5°F8.6°C -168.1°F-111.2°C - 2.0 mph N3.2 kmh N 4.0 mph6.4 kmh 29.09 in985.1 mb 0.00 in0.0 mm 0.00 in0.0 mm 0.04 in1.0 mm
06:34 PM 47.8°F8.8°C -168.0°F-111.1°C - 2.0 mph N3.2 kmh N 4.8 mph7.7 kmh 29.10 in985.4 mb 0.00 in0.0 mm 0.00 in0.0 mm 0.04 in1.0 mm
06:49 PM 47.7°F8.7°C -168.0°F-111.1°C - 2.0 mph N3.2 kmh N 4.0 mph6.4 kmh 29.10 in985.4 mb 0.00 in0.0 mm 0.00 in0.0 mm 0.04 in1.0 mm
07:04 PM 48.0°F8.9°C -168.0°F-111.1°C - 3.4 mph N5.5 kmh N 5.4 mph8.7 kmh 29.11 in985.8 mb 0.00 in0.0 mm 0.00 in0.0 mm 0.04 in1.0 mm
07:19 PM 47.8°F8.8°C -168.0°F-111.1°C - 3.4 mph N5.5 kmh N 5.4 mph8.7 kmh 29.11 in985.8 mb 0.00 in0.0 mm 0.00 in0.0 mm 0.04 in1.0 mm
07:34 PM 48.0°F8.9°C -168.0°F-111.1°C - 2.0 mph N3.2 kmh N 4.8 mph7.7 kmh 29.11 in985.8 mb 0.00 in0.0 mm 0.00 in0.0 mm 0.04 in1.0 mm
07:49 PM 47.7°F8.7°C -168.0°F-111.1°C - 2.8 mph N4.5 kmh N 5.4 mph8.7 kmh 29.12 in986.1 mb 0.00 in0.0 mm 0.00 in0.0 mm 0.04 in1.0 mm
08:04 PM 48.0°F8.9°C -168.0°F-111.1°C - 2.8 mph N4.5 kmh N 4.0 mph6.4 kmh 29.12 in986.1 mb 0.00 in0.0 mm 0.00 in0.0 mm 0.04 in1.0 mm
08:19 PM 47.8°F8.8°C -168.0°F-111.1°C - 3.4 mph N5.5 kmh N 7.4 mph11.9 kmh 29.13 in986.5 mb 0.00 in0.0 mm 0.00 in0.0 mm 0.04 in1.0 mm
08:34 PM 47.8°F8.8°C -168.0°F-111.1°C - 2.0 mph N3.2 kmh N 4.0 mph6.4 kmh 29.13 in986.5 mb 0.00 in0.0 mm 0.00 in0.0 mm 0.04 in1.0 mm
08:49 PM 47.5°F8.6°C -168.1°F-111.2°C - 3.4 mph N5.5 kmh N 4.8 mph7.7 kmh 29.13 in986.5 mb 0.00 in0.0 mm 0.00 in0.0 mm 0.04 in1.0 mm
09:04 PM 47.7°F8.7°C -168.0°F-111.1°C - 1.4 mph N2.3 kmh N 3.4 mph5.5 kmh 29.13 in986.5 mb 0.00 in0.0 mm 0.00 in0.0 mm 0.04 in1.0 mm
09:19 PM 47.7°F8.7°C -168.0°F-111.1°C - 2.8 mph N4.5 kmh N 4.8 mph7.7 kmh 29.14 in986.8 mb 0.00 in0.0 mm 0.00 in0.0 mm 0.04 in1.0 mm
09:34 PM 47.5°F8.6°C -168.1°F-111.2°C - 2.0 mph N3.2 kmh N 4.0 mph6.4 kmh 29.15 in987.1 mb 0.00 in0.0 mm 0.00 in0.0 mm 0.04 in1.0 mm
09:49 PM 47.5°F8.6°C -168.1°F-111.2°C - 1.4 mph N2.3 kmh N 3.4 mph5.5 kmh 29.16 in987.5 mb 0.00 in0.0 mm 0.00 in0.0 mm 0.04 in1.0 mm
10:04 PM 47.3°F8.5°C -168.1°F-111.2°C - 3.4 mph N5.5 kmh N 6.8 mph10.9 kmh 29.17 in987.8 mb 0.00 in0.0 mm 0.00 in0.0 mm 0.04 in1.0 mm
10:19 PM 47.5°F8.6°C -168.1°F-111.2°C - 2.8 mph N4.5 kmh N 6.2 mph10.0 kmh 29.17 in987.8 mb 0.00 in0.0 mm 0.00 in0.0 mm 0.04 in1.0 mm
10:33 PM 47.5°F8.6°C -168.1°F-111.2°C - 2.8 mph N4.5 kmh N 6.2 mph10.0 kmh 29.17 in987.8 mb 0.00 in0.0 mm 0.00 in0.0 mm 0.04 in1.0 mm
10:49 PM 47.7°F8.7°C -168.0°F-111.1°C - 2.0 mph N3.2 kmh N 4.0 mph6.4 kmh 29.19 in988.5 mb 0.00 in0.0 mm 0.00 in0.0 mm 0.04 in1.0 mm
11:04 PM 47.5°F8.6°C -168.1°F-111.2°C - 1.4 mph N2.3 kmh N 3.4 mph5.5 kmh 29.19 in988.5 mb 0.00 in0.0 mm 0.00 in0.0 mm 0.04 in1.0 mm
11:19 PM 47.5°F8.6°C -168.1°F-111.2°C - Calm Calm 4.0 mph6.4 kmh 29.20 in988.8 mb 0.00 in0.0 mm 0.00 in0.0 mm 0.04 in1.0 mm
11:34 PM 47.3°F8.5°C -168.1°F-111.2°C - 1.4 mph N2.3 kmh N 4.8 mph7.7 kmh 29.21 in989.2 mb 0.00 in0.0 mm 0.00 in0.0 mm 0.04 in1.0 mm
11:49 PM 46.9°F8.3°C -168.1°F-111.2°C - 2.8 mph N4.5 kmh N 5.4 mph8.7 kmh 29.21 in989.2 mb 0.00 in0.0 mm 0.00 in0.0 mm 0.04 in1.0 mm